Time;durP1;ratioP1;P1;durP2;ratioP2;P2;SDS_P1;SDS_P2;PMS_P1;PMS_P2;Temp;Humidity;BMP_temperature;BMP_pressure;BME280_temperature;BME280_humidity;BME280_pressure;Samples;Min_cycle;Max_cycle;Signal;HPM_P1;HPM_P2
2021/05/01 00:00:20;;;;;;;16.25;9.90;;;;;;;11.55;43.91;100863.44;5026077;28;20056;-69
2021/05/01 00:02:47;;;;;;;16.13;10.32;;;;;;;11.32;44.34;100866.25;5034560;28;20518;-68
2021/05/01 00:05:14;;;;;;;13.43;9.40;;;;;;;11.61;44.10;100860.25;5051945;28;20069;-69
2021/05/01 00:07:42;;;;;;;14.73;9.98;;;;;;;11.67;43.84;100870.06;5034329;28;20142;-68
2021/05/01 00:10:09;;;;;;;13.27;8.80;;;;;;;11.50;43.94;100855.31;5052046;28;20397;-69
2021/05/01 00:12:39;;;;;;;15.25;9.35;;;;;;;11.38;44.19;100858.66;5051787;28;20109;-67
2021/05/01 00:15:08;;;;;;;14.77;9.20;;;;;;;11.15;44.50;100857.88;5051877;28;20457;-69
2021/05/01 00:17:36;;;;;;;20.05;10.10;;;;;;;11.13;44.75;100860.13;5034376;28;20059;-68
2021/05/01 00:20:04;;;;;;;13.70;9.75;;;;;;;11.08;44.68;100860.25;5051709;28;20055;-68
2021/05/01 00:22:31;;;;;;;16.27;9.60;;;;;;;11.12;44.44;100864.00;5033396;28;20059;-68
2021/05/01 00:24:59;;;;;;;14.00;9.48;;;;;;;11.03;44.58;100859.56;5051534;28;20059;-67
2021/05/01 00:27:26;;;;;;;17.13;9.57;;;;;;;11.01;44.84;100861.81;5051818;28;20056;-68
2021/05/01 00:29:54;;;;;;;12.80;9.38;;;;;;;11.07;44.31;100855.84;5017799;28;20400;-69
2021/05/01 00:32:22;;;;;;;14.95;9.68;;;;;;;11.00;44.54;100858.22;5033723;28;20052;-69
2021/05/01 00:34:50;;;;;;;15.07;9.02;;;;;;;10.97;44.73;100853.34;5051037;28;20121;-67
2021/05/01 00:37:17;;;;;;;15.30;9.60;;;;;;;11.19;44.01;100845.06;5034437;28;20052;-67
2021/05/01 00:39:44;;;;;;;17.70;9.68;;;;;;;11.38;44.16;100847.63;5051843;28;20049;-68
2021/05/01 00:42:11;;;;;;;13.00;9.05;;;;;;;11.46;43.85;100841.34;5050265;28;20060;-68
2021/05/01 00:44:38;;;;;;;13.82;9.52;;;;;;;11.57;43.52;100844.66;5051566;28;20045;-69
2021/05/01 00:47:05;;;;;;;14.27;9.60;;;;;;;11.64;43.69;100834.81;5051720;28;20048;-69
2021/05/01 00:49:32;;;;;;;14.60;9.13;;;;;;;11.67;43.67;100844.41;5051812;28;20048;-68
2021/05/01 00:51:59;;;;;;;13.75;9.30;;;;;;;11.52;43.93;100837.34;5051272;28;20516;-67
2021/05/01 00:54:26;;;;;;;14.25;10.35;;;;;;;11.41;44.32;100830.44;5033802;28;20053;-69
2021/05/01 00:56:54;;;;;;;16.23;9.85;;;;;;;11.33;44.29;100840.28;5033895;28;20056;-68
2021/05/01 01:03:58;;;;;;;14.50;10.25;;;;;;;10.77;46.65;100834.56;5011549;28;20390;-67
2021/05/01 01:06:25;;;;;;;17.50;10.65;;;;;;;10.61;47.55;100832.47;5011238;28;20068;-68
2021/05/01 01:08:52;;;;;;;16.25;11.27;;;;;;;10.80;46.77;100825.66;5010049;28;20500;-66
2021/05/01 01:11:19;;;;;;;18.42;9.82;;;;;;;11.12;46.14;100833.66;5011742;28;20053;-66
2021/05/01 01:18:15;;;;;;;16.67;11.18;;;;;;;11.00;46.36;100833.41;5011241;28;20049;-68
2021/05/01 01:20:42;;;;;;;15.57;10.70;;;;;;;10.91;46.51;100826.22;5025913;28;20053;-69
2021/05/01 01:23:11;;;;;;;15.85;10.70;;;;;;;11.03;46.25;100829.22;5011827;28;20532;-67
2021/05/01 01:25:38;;;;;;;16.25;10.45;;;;;;;10.77;46.69;100829.06;5010396;28;20057;-69
2021/05/01 01:32:33;;;;;;;16.42;11.23;;;;;;;10.30;48.22;100824.09;5011342;28;20038;-66
2021/05/01 01:35:00;;;;;;;17.05;11.05;;;;;;;10.38;47.81;100834.34;5011347;28;20347;-68
2021/05/01 01:37:27;;;;;;;16.80;11.52;;;;;;;10.60;47.07;100828.88;5013681;28;20050;-67
2021/05/01 01:39:54;;;;;;;22.58;11.27;;;;;;;10.58;47.22;100827.56;5013564;28;20042;-68
2021/05/01 01:42:21;;;;;;;17.25;11.55;;;;;;;10.30;47.76;100823.25;5010552;28;20077;-67
2021/05/01 01:44:48;;;;;;;16.35;12.13;;;;;;;10.14;48.09;100831.03;5010929;28;20433;-69
2021/05/01 01:47:15;;;;;;;16.85;11.77;;;;;;;10.31;47.68;100827.63;5011093;28;20054;-68
2021/05/01 01:49:43;;;;;;;16.27;11.30;;;;;;;10.34;47.91;100824.28;5009618;28;20050;-71
2021/05/01 01:52:10;;;;;;;17.52;11.43;;;;;;;10.65;47.57;100822.47;5009996;28;20054;-68
2021/05/01 01:54:37;;;;;;;15.98;11.10;;;;;;;10.63;46.93;100822.78;5013352;28;20052;-70
2021/05/01 01:57:07;;;;;;;14.50;11.65;;;;;;;10.61;47.07;100829.69;4998499;28;20050;-70
2021/05/01 01:59:35;;;;;;;20.38;12.90;;;;;;;10.44;47.51;100826.81;5015601;28;20053;-69
2021/05/01 02:02:05;;;;;;;16.73;11.52;;;;;;;10.70;47.31;100834.19;5027188;28;20052;-68
2021/05/01 02:04:33;;;;;;;19.42;11.95;;;;;;;10.78;46.70;100833.41;5020556;28;20049;-69
2021/05/01 02:07:04;;;;;;;20.67;12.15;;;;;;;10.62;47.46;100832.13;5054113;28;20060;-71
2021/05/01 02:09:32;;;;;;;19.65;12.15;;;;;;;10.48;47.63;100834.13;5037849;28;20380;-69
2021/05/01 02:12:03;;;;;;;19.02;12.32;;;;;;;10.44;47.92;100830.38;5036815;28;20084;-69
2021/05/01 02:14:33;;;;;;;16.85;11.30;;;;;;;10.47;48.00;100827.00;5036219;28;20044;-69
2021/05/01 02:17:00;;;;;;;21.33;12.48;;;;;;;10.45;48.22;100820.97;5054420;28;20071;-69
2021/05/01 02:19:29;;;;;;;18.58;12.38;;;;;;;10.28;48.82;100831.84;5054198;28;20056;-68
2021/05/01 02:21:57;;;;;;;16.60;12.00;;;;;;;10.55;48.46;100825.44;5054134;28;20053;-69
2021/05/01 02:24:24;;;;;;;20.42;12.88;;;;;;;10.49;48.33;100827.50;5054208;28;20381;-69
2021/05/01 02:26:56;;;;;;;16.77;12.32;;;;;;;10.58;48.04;100831.16;5037535;28;20056;-69
2021/05/01 02:29:26;;;;;;;19.75;12.52;;;;;;;10.68;48.40;100824.56;5054780;28;20037;-69
2021/05/01 02:31:53;;;;;;;;;;;;;;;10.46;48.81;100830.06;5054804;28;20393;-69
2021/05/01 02:34:25;;;;;;;18.92;13.13;;;;;;;10.26;49.16;100827.75;5036741;28;19927;-70
2021/05/01 02:36:56;;;;;;;17.63;12.43;;;;;;;10.37;49.38;100827.22;5036232;28;20053;-70
2021/05/01 02:39:24;;;;;;;19.35;12.65;;;;;;;10.49;49.06;100815.66;5054141;28;20045;-70
2021/05/01 02:41:58;;;;;;;18.98;13.18;;;;;;;10.26;49.39;100822.22;5036883;28;20048;-70
2021/05/01 02:44:25;;;;;;;19.98;12.98;;;;;;;10.45;49.00;100820.16;5036967;28;20049;-71
2021/05/01 02:46:53;;;;;;;20.05;13.05;;;;;;;10.59;48.63;100813.50;5037363;28;20468;-68
2021/05/01 02:49:24;;;;;;;20.95;13.07;;;;;;;10.99;47.72;100817.19;5036915;28;20354;-71
2021/05/01 02:51:52;;;;;;;22.20;12.93;;;;;;;10.69;48.52;100810.50;5035359;28;20053;-69
2021/05/01 02:54:27;;;;;;;23.45;13.38;;;;;;;10.60;48.63;100804.09;5054919;28;20064;-71
2021/05/01 02:56:55;;;;;;;19.35;12.30;;;;;;;10.68;48.49;100805.28;5036480;28;20507;-70
2021/05/01 02:59:25;;;;;;;18.10;12.85;;;;;;;10.76;48.41;100805.34;5054134;28;20048;-68
2021/05/01 03:01:52;;;;;;;23.98;14.32;;;;;;;10.45;48.92;100801.69;5035709;28;20041;-69
2021/05/01 03:04:19;;;;;;;19.13;13.43;;;;;;;10.44;49.26;100802.00;5035147;28;20519;-68
2021/05/01 03:06:46;;;;;;;17.35;13.07;;;;;;;10.53;49.19;100805.66;5051886;28;20128;-69
2021/05/01 03:09:16;;;;;;;19.02;13.02;;;;;;;10.70;48.73;100803.06;5053570;28;20049;-69
2021/05/01 03:11:44;;;;;;;20.17;13.30;;;;;;;10.72;48.70;100798.84;5053853;28;20064;-68
2021/05/01 03:14:16;;;;;;;22.05;13.35;;;;;;;10.86;48.49;100794.09;5053067;28;20053;-69
2021/05/01 03:16:43;;;;;;;19.58;12.95;;;;;;;10.77;48.53;100793.22;5036783;28;20049;-68
2021/05/01 03:19:10;;;;;;;20.15;13.10;;;;;;;10.90;48.07;100786.81;5052350;28;20511;-67
2021/05/01 03:21:38;;;;;;;18.08;12.75;;;;;;;10.79;48.53;100792.91;5053111;28;20057;-70
2021/05/01 03:24:06;;;;;;;19.92;13.75;;;;;;;10.87;48.25;100792.97;5053118;28;20060;-68
2021/05/01 03:26:34;;;;;;;17.95;12.82;;;;;;;10.92;48.06;100786.50;5035599;28;20049;-67
2021/05/01 03:29:00;;;;;;;18.88;13.32;;;;;;;11.09;47.47;100792.94;5034443;28;20145;-67
2021/05/01 03:31:27;;;;;;;22.55;13.68;;;;;;;11.03;47.74;100794.22;5034781;28;20045;-67
2021/05/01 03:33:57;;;;;;;17.43;13.33;;;;;;;11.25;47.21;100796.13;5052808;28;20543;-67
2021/05/01 03:36:24;;;;;;;20.15;12.50;;;;;;;11.34;46.72;100797.00;5034720;28;20052;-68
2021/05/01 03:38:51;;;;;;;18.90;12.15;;;;;;;11.23;46.79;100793.69;5052920;28;20060;-70
2021/05/01 03:41:18;;;;;;;16.52;12.82;;;;;;;11.26;46.81;100801.31;5034778;28;20049;-71
2021/05/01 03:43:45;;;;;;;22.25;13.93;;;;;;;11.30;46.53;100799.56;5034413;28;20049;-69
2021/05/01 03:46:12;;;;;;;20.75;13.70;;;;;;;11.09;47.15;100806.72;5034301;28;20040;-71
2021/05/01 03:48:39;;;;;;;17.63;12.63;;;;;;;11.29;46.53;100806.22;5034339;28;20049;-68
2021/05/01 03:51:07;;;;;;;17.17;12.93;;;;;;;11.28;46.64;100809.28;5034696;28;20049;-67
2021/05/01 03:53:34;;;;;;;18.58;13.20;;;;;;;11.13;46.70;100802.22;5052367;28;20053;-69
2021/05/01 03:56:03;;;;;;;18.42;13.40;;;;;;;11.57;45.94;100803.28;5052528;28;20049;-71
2021/05/01 03:58:30;;;;;;;18.58;13.43;;;;;;;11.52;46.31;100795.97;5034234;28;20049;-69
2021/05/01 04:00:57;;;;;;;22.95;13.85;;;;;;;11.20;46.65;100796.25;5051991;28;20123;-69
2021/05/01 04:03:25;;;;;;;21.45;13.77;;;;;;;11.11;47.36;100798.97;5051357;28;20053;-69
2021/05/01 04:05:54;;;;;;;;;;;;;;;11.34;47.08;100806.09;5052675;28;20045;-67
2021/05/01 04:08:21;;;;;;;21.20;15.05;;;;;;;11.19;47.28;100811.97;5052734;28;19944;-67
2021/05/01 04:10:48;;;;;;;21.63;14.45;;;;;;;11.32;47.20;100799.25;5052641;28;20044;-67
2021/05/01 04:13:15;;;;;;;17.10;13.73;;;;;;;11.13;47.97;100799.47;5052461;28;20052;-70
2021/05/01 04:15:42;;;;;;;21.33;14.60;;;;;;;11.27;47.52;100794.69;5033930;28;20453;-70
2021/05/01 04:18:14;;;;;;;23.85;15.18;;;;;;;11.24;47.66;100800.03;5052211;28;20072;-68
2021/05/01 04:20:41;;;;;;;20.23;13.90;;;;;;;11.31;47.53;100795.66;5051321;28;20385;-69
2021/05/01 04:23:09;;;;;;;20.83;14.02;;;;;;;11.25;47.96;100796.13;5051416;28;20053;-67
2021/05/01 04:25:36;;;;;;;20.23;14.32;;;;;;;11.30;48.01;100793.22;5052066;28;20056;-69
2021/05/01 04:28:05;;;;;;;18.45;13.82;;;;;;;11.28;47.61;100795.47;5051319;28;20144;-67
2021/05/01 04:30:33;;;;;;;21.92;14.27;;;;;;;11.08;48.29;100788.59;5051957;28;20041;-67
2021/05/01 04:33:00;;;;;;;20.92;13.68;;;;;;;11.34;47.67;100794.22;5050936;28;20045;-68
2021/05/01 04:35:27;;;;;;;20.92;13.50;;;;;;;11.03;48.36;100793.41;5051104;28;20053;-69
2021/05/01 04:37:57;;;;;;;19.37;13.40;;;;;;;11.13;48.24;100793.13;5051932;28;20051;-67
2021/05/01 04:40:23;;;;;;;19.52;13.43;;;;;;;11.38;47.56;100801.53;5017421;28;20503;-67
2021/05/01 04:42:52;;;;;;;21.90;13.95;;;;;;;11.38;47.63;100803.50;5050852;28;20071;-69
2021/05/01 04:45:20;;;;;;;19.10;13.57;;;;;;;11.34;47.38;100799.75;5050682;28;20061;-68
2021/05/01 04:47:48;;;;;;;22.17;14.18;;;;;;;11.53;47.17;100796.75;5051235;28;20041;-69
2021/05/01 04:50:15;;;;;;;19.33;13.70;;;;;;;11.46;47.13;100799.97;5051806;28;20049;-69
2021/05/01 04:52:42;;;;;;;20.33;13.98;;;;;;;11.42;47.69;100809.22;5051204;28;20053;-68
2021/05/01 04:55:13;;;;;;;20.10;14.18;;;;;;;11.29;48.05;100806.22;5032986;28;20052;-67
2021/05/01 04:57:44;;;;;;;18.15;14.18;;;;;;;11.09;49.06;100808.66;5033617;28;20049;-68
2021/05/01 05:00:13;;;;;;;18.92;14.00;;;;;;;11.26;49.20;100811.56;5050654;28;20064;-69
2021/05/01 05:02:40;;;;;;;16.25;13.77;;;;;;;11.28;49.13;100812.84;5050390;28;20520;-68
2021/05/01 05:05:09;;;;;;;19.38;13.95;;;;;;;11.20;49.64;100816.38;5050763;28;20061;-69
2021/05/01 05:07:37;;;;;;;20.98;14.98;;;;;;;11.17;49.85;100819.78;5033222;28;20048;-69
2021/05/01 05:10:06;;;;;;;17.60;13.77;;;;;;;11.08;50.59;100813.38;5033096;28;20045;-70
2021/05/01 05:12:33;;;;;;;20.60;13.98;;;;;;;11.02;50.70;100813.81;5016932;28;20049;-67
2021/05/01 05:15:01;;;;;;;22.92;13.65;;;;;;;11.10;50.52;100827.69;5050164;28;20045;-68
2021/05/01 05:17:28;;;;;;;18.05;14.43;;;;;;;11.01;50.93;100824.03;5051061;28;20045;-70
2021/05/01 05:19:55;;;;;;;21.38;14.68;;;;;;;11.12;50.87;100828.16;5033788;28;20057;-68
2021/05/01 05:22:22;;;;;;;25.42;14.80;;;;;;;11.20;50.86;100827.41;5050263;28;20052;-68
2021/05/01 05:24:50;;;;;;;21.20;15.77;;;;;;;11.04;51.43;100831.69;5032569;28;20068;-69
2021/05/01 05:27:17;;;;;;;20.40;14.85;;;;;;;11.18;50.78;100831.59;5034140;28;20049;-68
2021/05/01 05:29:50;;;;;;;20.60;15.10;;;;;;;10.94;51.76;100836.63;5054615;28;20045;-69
2021/05/01 05:34:14;;;;;;;20.88;15.20;;;;;;;11.05;51.45;100826.97;5055844;28;20051;-69
2021/05/01 05:36:41;;;;;;;22.52;14.88;;;;;;;11.28;50.63;100828.56;5057518;28;20069;-70
2021/05/01 05:39:08;;;;;;;20.85;15.13;;;;;;;11.44;50.32;100826.25;5057512;28;20060;-66
2021/05/01 05:41:35;;;;;;;20.25;14.95;;;;;;;11.51;49.92;100823.84;5056064;28;20045;-67
2021/05/01 05:44:04;;;;;;;22.95;15.13;;;;;;;11.11;50.71;100829.28;5021246;28;20045;-69
2021/05/01 05:51:08;;;;;;;19.60;14.10;;;;;;;11.12;51.02;100830.91;5055633;28;20059;-69
2021/05/01 05:53:36;;;;;;;17.45;13.63;;;;;;;11.05;51.09;100827.78;5055666;28;20052;-69
2021/05/01 05:56:03;;;;;;;22.23;16.15;;;;;;;10.83;52.85;100833.28;5055289;28;20053;-70
2021/05/01 05:58:33;;;;;;;21.00;16.15;;;;;;;10.45;54.08;100837.50;5055250;28;20068;-69
2021/05/01 06:01:00;;;;;;;23.25;17.23;;;;;;;10.37;56.02;100827.22;5055431;28;20052;-69
2021/05/01 06:03:28;;;;;;;20.83;16.90;;;;;;;10.26;55.92;100834.06;5053573;28;20124;-70
2021/05/01 06:06:03;;;;;;;23.13;16.30;;;;;;;10.42;55.62;100829.88;5037193;28;20049;-68
2021/05/01 06:08:30;;;;;;;21.00;16.08;;;;;;;10.12;56.95;100822.25;5020791;28;20408;-68
2021/05/01 06:11:01;;;;;;;25.35;16.80;;;;;;;9.68;58.47;100831.09;5055648;28;20056;-70
2021/05/01 06:13:31;;;;;;;22.67;16.40;;;;;;;9.44;58.87;100824.97;5037865;28;20052;-70
2021/05/01 06:16:01;;;;;;;26.50;16.58;;;;;;;9.31;59.78;100827.69;5054573;28;20053;-69
2021/05/01 06:18:33;;;;;;;24.58;16.27;;;;;;;9.94;61.35;100831.41;5053299;28;20144;-68
2021/05/01 06:21:01;;;;;;;26.35;17.20;;;;;;;10.19;57.57;100840.00;5054397;28;20460;-69
2021/05/01 06:23:28;;;;;;;21.58;17.48;;;;;;;9.61;58.35;100838.13;5054023;28;20069;-68
2021/05/01 06:25:56;;;;;;;24.08;17.73;;;;;;;9.94;57.99;100832.22;5053668;28;20057;-69
2021/05/01 06:28:23;;;;;;;24.08;18.17;;;;;;;9.71;58.54;100841.50;5053697;28;20049;-69
2021/05/01 06:30:50;;;;;;;23.42;17.85;;;;;;;9.73;58.61;100842.00;5019931;28;20496;-68
2021/05/01 06:33:17;;;;;;;24.95;17.85;;;;;;;9.72;58.67;100851.38;5053051;28;20068;-69
2021/05/01 06:35:47;;;;;;;26.23;18.48;;;;;;;9.81;58.64;100848.75;5053489;28;20049;-69
2021/05/01 06:38:15;;;;;;;21.60;17.55;;;;;;;10.06;58.05;100846.28;5036031;28;20054;-68
2021/05/01 06:40:45;;;;;;;22.73;17.65;;;;;;;9.96;58.41;100846.50;5052588;28;20053;-69
2021/05/01 06:43:17;;;;;;;22.25;17.88;;;;;;;10.35;57.13;100848.75;5053400;28;20049;-69
2021/05/01 06:45:44;;;;;;;24.08;18.25;;;;;;;9.56;59.46;100854.72;5053700;28;20064;-69
2021/05/01 06:48:15;;;;;;;27.23;19.02;;;;;;;9.80;59.74;100858.09;5035719;28;20060;-70
2021/05/01 06:50:42;;;;;;;25.27;18.35;;;;;;;10.06;58.77;100853.72;5052987;28;20448;-69
2021/05/01 06:53:16;;;;;;;23.05;18.50;;;;;;;10.15;59.21;100858.25;5053087;28;20068;-70
2021/05/01 06:55:43;;;;;;;26.05;18.70;;;;;;;10.17;57.99;100863.44;5036145;28;20475;-69
2021/05/01 06:58:10;;;;;;;25.52;20.15;;;;;;;10.10;58.13;100858.34;5053168;28;20501;-70
2021/05/01 07:00:39;;;;;;;30.67;20.88;;;;;;;9.54;59.84;100865.19;5052582;28;20041;-69
2021/05/01 07:03:07;;;;;;;29.05;20.88;;;;;;;9.92;59.09;100861.97;5035074;28;20045;-69
2021/05/01 07:05:35;;;;;;;30.30;20.30;;;;;;;9.86;58.92;100860.47;5053034;28;20053;-69
2021/05/01 07:08:03;;;;;;;27.92;20.52;;;;;;;10.00;58.66;100868.72;5035829;28;20060;-68
2021/05/01 07:10:30;;;;;;;27.52;20.63;;;;;;;10.02;58.14;100867.28;5052481;28;20072;-69
2021/05/01 07:12:59;;;;;;;34.45;21.88;;;;;;;9.94;58.59;100869.94;5035104;28;20132;-68
2021/05/01 07:15:26;;;;;;;24.97;20.70;;;;;;;9.72;58.52;100867.06;5053528;28;20048;-69
2021/05/01 07:22:21;;;;;;;27.83;20.52;;;;;;;9.78;58.65;100872.16;5052304;28;20052;-70
2021/05/01 07:24:48;;;;;;;27.27;21.33;;;;;;;10.16;57.70;100870.06;5052965;28;20045;-66
2021/05/01 07:27:16;;;;;;;25.77;20.70;;;;;;;10.41;56.05;100863.22;5052540;28;20488;-68
2021/05/01 07:29:45;;;;;;;28.13;21.10;;;;;;;10.48;56.14;100864.41;5052796;28;20057;-70
2021/05/01 07:36:45;;;;;;;26.15;20.83;;;;;;;10.69;54.74;100873.84;5034206;28;20053;-70
2021/05/01 07:39:12;;;;;;;25.25;19.83;;;;;;;10.72;54.78;100864.16;5035263;28;20182;-68
2021/05/01 07:41:42;;;;;;;25.58;19.63;;;;;;;11.00;54.03;100860.97;5052015;28;20053;-67
2021/05/01 07:44:09;;;;;;;25.38;20.05;;;;;;;11.30;53.79;100867.69;5051957;28;20056;-68
2021/05/01 07:51:04;;;;;;;25.52;20.33;;;;;;;10.97;54.08;100871.81;5052661;28;20045;-67
2021/05/01 07:53:31;;;;;;;28.23;19.48;;;;;;;11.06;53.51;100867.19;5052793;28;20053;-67
2021/05/01 07:56:00;;;;;;;24.80;18.77;;;;;;;10.69;53.78;100875.78;5018686;28;20041;-67
2021/05/01 07:58:27;;;;;;;23.23;17.63;;;;;;;11.04;53.18;100877.72;5052741;28;20056;-70
2021/05/01 08:00:54;;;;;;;23.80;19.33;;;;;;;10.96;53.18;100867.44;5052265;28;20045;-69
2021/05/01 08:07:59;;;;;;;21.52;17.25;;;;;;;11.31;52.29;100875.63;5012645;28;20063;-70
2021/05/01 08:10:27;;;;;;;23.75;18.15;;;;;;;11.71;51.87;100873.00;5012567;28;20080;-71
2021/05/01 08:12:54;;;;;;;23.38;17.80;;;;;;;11.68;51.14;100871.66;4995299;28;20050;-67
2021/05/01 08:15:21;;;;;;;22.85;18.20;;;;;;;11.71;50.64;100884.84;4994777;28;20061;-69
2021/05/01 08:22:25;;;;;;;27.08;17.40;;;;;;;11.43;50.90;100880.59;5012390;28;20516;-70
2021/05/01 08:24:52;;;;;;;21.67;17.90;;;;;;;11.40;51.34;100888.69;5011004;28;20482;-69
2021/05/01 08:27:19;;;;;;;24.02;18.23;;;;;;;11.65;50.59;100886.09;5011771;28;20057;-68
2021/05/01 08:29:47;;;;;;;25.75;19.15;;;;;;;11.95;50.26;100887.22;5012071;28;20517;-68
2021/05/01 08:32:17;;;;;;;25.20;20.08;;;;;;;11.89;50.31;100889.31;5009993;28;20050;-68
2021/05/01 08:34:45;;;;;;;25.00;19.00;;;;;;;11.72;49.88;100891.97;5010536;28;20046;-68
2021/05/01 08:37:12;;;;;;;29.08;20.10;;;;;;;11.63;50.39;100891.09;4994315;28;20401;-70
2021/05/01 08:39:41;;;;;;;25.67;19.83;;;;;;;11.59;50.54;100898.38;5012359;28;20057;-68
2021/05/01 08:42:08;;;;;;;29.45;18.98;;;;;;;11.70;49.83;100896.22;5010886;28;20347;-69
2021/05/01 08:44:35;;;;;;;25.08;20.65;;;;;;;11.69;49.83;100905.59;5010315;28;20057;-69
2021/05/01 08:47:03;;;;;;;25.70;20.92;;;;;;;11.78;49.61;100898.19;5010565;28;20080;-70
2021/05/01 08:49:31;;;;;;;24.48;19.48;;;;;;;12.24;48.85;100895.78;5010806;28;20057;-71
2021/05/01 08:51:59;;;;;;;27.80;19.77;;;;;;;12.37;47.75;100894.84;5010308;28;20045;-67
2021/05/01 08:54:26;;;;;;;23.23;17.25;;;;;;;12.24;47.41;100895.78;5011992;28;20411;-70
2021/05/01 08:56:53;;;;;;;21.88;18.08;;;;;;;12.19;46.98;100895.91;5009899;28;20061;-69
2021/05/01 08:59:20;;;;;;;23.10;18.13;;;;;;;12.29;47.47;100892.88;5011394;28;20046;-70
2021/05/01 09:01:51;;;;;;;26.13;19.30;;;;;;;11.91;48.49;100898.09;5011107;28;20053;-70
2021/05/01 09:09:05;;;;;;;27.55;21.02;;;;;;;12.20;48.56;100901.13;5010391;28;20055;-68
2021/05/01 09:11:43;;;;;;;29.10;19.23;;;;;;;12.34;47.65;100899.06;5008156;28;20053;-70
2021/05/01 09:14:18;;;;;;;20.23;17.13;;;;;;;12.35;47.16;100903.47;5008526;28;20045;-70
2021/05/01 09:17:04;;;;;;;23.02;17.00;;;;;;;12.28;47.07;100903.13;5010021;28;20052;-71
2021/05/01 09:23:46;;;;;;;19.60;13.68;;;;;;;12.78;49.90;100884.19;4944257;29;20070;-71
2021/05/01 09:26:13;;;;;;;23.48;15.73;;;;;;;12.84;47.20;100885.66;4943422;29;20054;-69
2021/05/01 09:28:43;;;;;;;21.55;14.40;;;;;;;13.30;48.20;100885.84;4925511;29;20055;-69
2021/05/01 09:31:13;;;;;;;20.88;16.00;;;;;;;12.93;45.77;100888.44;4963457;28;20064;-75
2021/05/01 09:38:15;;;;;;;20.40;14.27;;;;;;;13.40;46.40;100879.16;4991387;28;20434;-64
2021/05/01 09:40:45;;;;;;;17.00;12.75;;;;;;;13.81;45.35;100884.13;5009995;28;20561;-65
2021/05/01 09:43:13;;;;;;;18.83;13.27;;;;;;;13.59;44.99;100885.16;5008543;28;20707;-69
2021/05/01 09:45:40;;;;;;;20.77;13.88;;;;;;;13.32;44.62;100883.56;5008665;28;20065;-70
2021/05/01 09:48:19;;;;;;;18.92;14.05;;;;;;;13.18;45.37;100885.69;5009043;28;20057;-66
2021/05/01 09:50:47;;;;;;;19.02;14.55;;;;;;;12.96;46.42;100893.31;5010293;28;20346;-68
2021/05/01 09:53:17;;;;;;;19.15;14.82;;;;;;;12.76;46.91;100886.47;5009711;28;20050;-68
2021/05/01 09:55:44;;;;;;;;;;;;;;;12.48;47.26;100882.38;5008092;28;20058;-71
2021/05/01 09:58:21;;;;;;;17.92;13.43;;;;;;;12.75;47.19;100882.06;5008249;28;19928;-66
2021/05/01 10:00:50;;;;;;;21.40;14.55;;;;;;;12.00;48.39;100898.13;5009316;28;20053;-68
2021/05/01 10:03:22;;;;;;;19.25;14.38;;;;;;;11.69;48.88;100889.88;5010080;28;20397;-65
2021/05/01 10:05:51;;;;;;;21.70;14.70;;;;;;;11.93;48.67;100893.06;5008492;28;20065;-71
2021/05/01 10:08:21;;;;;;;19.73;13.82;;;;;;;11.90;47.89;100890.94;5040902;28;20056;-63
2021/05/01 10:10:49;;;;;;;20.77;13.00;;;;;;;12.05;47.95;100892.47;5047784;28;20373;-69
2021/05/01 10:13:53;;;;;;;17.55;12.30;;;;;;;12.08;47.18;100897.38;5031051;28;20057;-69
2021/05/01 10:16:22;;;;;;;19.20;11.50;;;;;;;11.92;47.56;100893.38;5034914;28;20066;-67
2021/05/01 10:19:09;;;;;;;18.02;11.43;;;;;;;12.05;47.29;100896.03;5035392;28;20041;-72
2021/05/01 10:21:38;;;;;;;19.52;13.20;;;;;;;12.01;47.59;100894.25;5033410;28;20045;-65
2021/05/01 10:24:06;;;;;;;20.23;13.82;;;;;;;11.95;48.16;100895.50;5034626;28;20132;-68
2021/05/01 10:26:48;;;;;;;24.40;14.85;;;;;;;11.95;48.75;100903.78;5051347;28;20064;-65
2021/05/01 10:29:33;;;;;;;22.08;15.75;;;;;;;11.81;49.53;100908.59;5053990;28;20045;-71
2021/05/01 10:32:28;;;;;;;21.13;15.23;;;;;;;11.70;49.96;100901.72;5052528;28;20109;-69
2021/05/01 10:34:57;;;;;;;25.38;17.15;;;;;;;11.76;49.99;100895.75;5052300;28;20045;-68
2021/05/01 10:37:28;;;;;;;19.10;15.30;;;;;;;11.59;50.08;100900.31;5052825;28;20048;-66
2021/05/01 10:39:58;;;;;;;20.90;16.08;;;;;;;11.47;51.08;100900.09;5034476;28;20056;-69
2021/05/01 10:42:26;;;;;;;21.88;16.73;;;;;;;11.69;50.33;100903.66;5017885;28;20045;-75
2021/05/01 10:44:55;;;;;;;20.65;16.45;;;;;;;11.56;51.06;100904.50;5051793;28;20064;-70
2021/05/01 10:47:22;;;;;;;20.55;16.00;;;;;;;11.60;51.22;100904.69;5051542;28;20155;-69
2021/05/01 10:50:22;;;;;;;20.23;15.40;;;;;;;11.58;50.76;100905.03;5052747;28;20049;-70
2021/05/01 10:52:49;;;;;;;21.20;16.93;;;;;;;11.46;51.24;100903.97;5051497;28;20048;-70
2021/05/01 10:55:20;;;;;;;24.80;15.77;;;;;;;11.64;50.77;100905.72;5034801;28;20291;-69
2021/05/01 10:57:58;;;;;;;24.17;18.13;;;;;;;11.87;51.26;100902.59;5034888;28;20064;-70
2021/05/01 11:00:40;;;;;;;25.67;18.63;;;;;;;12.21;51.18;100908.28;5051229;28;20072;-68
2021/05/01 11:03:08;;;;;;;27.15;19.25;;;;;;;12.05;51.93;100898.81;5052334;28;20045;-69
2021/05/01 11:05:46;;;;;;;26.47;21.00;;;;;;;12.04;52.13;100902.72;5050907;28;20053;-70
2021/05/01 11:08:26;;;;;;;29.73;20.85;;;;;;;11.76;51.88;100897.69;5035320;28;20512;-66
2021/05/01 11:10:54;;;;;;;24.23;19.98;;;;;;;11.81;52.42;100894.78;5017010;28;20045;-68
2021/05/01 11:13:26;;;;;;;26.75;20.10;;;;;;;12.05;51.69;100898.81;5050642;28;20493;-70
2021/05/01 11:16:05;;;;;;;24.60;20.38;;;;;;;12.07;52.05;100906.75;5052101;28;20488;-70
2021/05/01 11:18:36;;;;;;;28.58;21.73;;;;;;;12.17;51.39;100898.19;5034508;28;20040;-67
2021/05/01 11:21:07;;;;;;;24.67;21.27;;;;;;;12.23;51.26;100896.91;5033100;28;20061;-67
2021/05/01 11:23:36;;;;;;;25.85;21.20;;;;;;;12.08;51.28;100894.59;5050611;28;20071;-68
2021/05/01 11:26:08;;;;;;;26.35;22.83;;;;;;;11.83;51.79;100896.13;5032909;28;20372;-70
2021/05/01 11:28:38;;;;;;;27.73;22.92;;;;;;;11.55;52.23;100893.81;5032894;28;20053;-69
2021/05/01 11:31:06;;;;;;;27.58;22.88;;;;;;;11.74;51.89;100900.78;5033590;28;20488;-70
2021/05/01 11:33:34;;;;;;;30.17;23.48;;;;;;;11.58;51.95;100901.44;5017034;28;20056;-67
2021/05/01 11:36:01;;;;;;;31.50;24.10;;;;;;;11.64;52.29;100892.78;5051604;28;20052;-68
2021/05/01 11:38:34;;;;;;;29.15;24.13;;;;;;;11.95;51.71;100888.03;5058023;28;20045;-68
2021/05/01 11:41:10;;;;;;;30.25;23.85;;;;;;;11.77;51.85;100893.81;5051535;28;20060;-68
2021/05/01 11:43:40;;;;;;;30.55;23.65;;;;;;;11.80;51.96;100895.94;5017381;28;20047;-70
2021/05/01 11:46:16;;;;;;;32.45;23.38;;;;;;;12.10;51.45;100892.34;5050702;28;20052;-69
2021/05/01 11:48:51;;;;;;;28.55;23.70;;;;;;;12.04;51.96;100888.06;5050536;28;20775;-71
2021/05/01 11:51:28;;;;;;;29.73;24.13;;;;;;;12.19;51.06;100888.47;5017366;28;20053;-70
2021/05/01 11:54:05;;;;;;;28.63;23.65;;;;;;;11.83;51.68;100895.28;5050229;28;20049;-68
2021/05/01 11:56:49;;;;;;;27.73;24.02;;;;;;;11.84;52.20;100888.63;5032808;28;20441;-70
2021/05/01 11:59:16;;;;;;;28.45;22.52;;;;;;;12.16;52.18;100883.59;5032518;28;20041;-69
2021/05/01 12:02:03;;;;;;;33.08;26.75;;;;;;;11.70;52.38;100888.72;5033721;28;20512;-68
2021/05/01 12:09:19;;;;;;;31.90;25.77;;;;;;;11.56;53.62;100887.16;5051177;28;20056;-67
2021/05/01 12:11:50;;;;;;;33.58;24.42;;;;;;;11.91;52.75;100881.53;5050717;28;20049;-70
2021/05/01 12:14:18;;;;;;;30.20;24.02;;;;;;;12.17;51.33;100885.19;5050965;28;20064;-68
2021/05/01 12:17:07;;;;;;;33.88;25.30;;;;;;;12.19;51.29;100885.69;5032299;28;20049;-70
2021/05/01 12:24:31;;;;;;;31.27;24.35;;;;;;;12.04;51.20;100869.56;5054769;28;20041;-69
2021/05/01 12:27:43;;;;;;;31.60;24.75;;;;;;;12.26;51.12;100860.38;5035688;28;20044;-71